sensor_id;sensor_type;location;lat;lon;timestamp;P1;durP1;ratioP1;P2;durP2;ratioP2
60038;SDS011;45916;52.734;6.544;2023-05-28T00:02:11;27.58;;;11.02;;
60038;SDS011;45916;52.734;6.544;2023-05-28T00:04:37;21.70;;;10.25;;
60038;SDS011;45916;52.734;6.544;2023-05-28T00:07:03;24.73;;;12.05;;
60038;SDS011;45916;52.734;6.544;2023-05-28T00:09:28;18.02;;;9.85;;
60038;SDS011;45916;52.734;6.544;2023-05-28T00:11:54;23.23;;;10.50;;
60038;SDS011;45916;52.734;6.544;2023-05-28T00:14:21;21.90;;;10.38;;
60038;SDS011;45916;52.734;6.544;2023-05-28T00:16:46;21.35;;;10.98;;
60038;SDS011;45916;52.734;6.544;2023-05-28T00:19:12;22.40;;;10.57;;
60038;SDS011;45916;52.734;6.544;2023-05-28T00:21:38;17.75;;;10.15;;
60038;SDS011;45916;52.734;6.544;2023-05-28T00:24:04;18.63;;;11.00;;
60038;SDS011;45916;52.734;6.544;2023-05-28T00:26:30;22.20;;;10.25;;
60038;SDS011;45916;52.734;6.544;2023-05-28T00:28:55;19.50;;;12.07;;
60038;SDS011;45916;52.734;6.544;2023-05-28T00:31:21;18.83;;;10.82;;
60038;SDS011;45916;52.734;6.544;2023-05-28T00:33:47;21.88;;;10.07;;
60038;SDS011;45916;52.734;6.544;2023-05-28T00:36:13;19.55;;;10.55;;
60038;SDS011;45916;52.734;6.544;2023-05-28T00:38:39;21.25;;;11.60;;
60038;SDS011;45916;52.734;6.544;2023-05-28T00:41:04;15.27;;;9.80;;
60038;SDS011;45916;52.734;6.544;2023-05-28T00:43:31;19.25;;;11.60;;
60038;SDS011;45916;52.734;6.544;2023-05-28T00:46:00;22.17;;;10.70;;
60038;SDS011;45916;52.734;6.544;2023-05-28T00:48:28;20.75;;;10.57;;
60038;SDS011;45916;52.734;6.544;2023-05-28T00:50:54;20.45;;;12.35;;
60038;SDS011;45916;52.734;6.544;2023-05-28T00:53:20;18.60;;;9.77;;
60038;SDS011;45916;52.734;6.544;2023-05-28T00:55:48;20.27;;;11.75;;
60038;SDS011;45916;52.734;6.544;2023-05-28T00:58:14;25.33;;;11.50;;
60038;SDS011;45916;52.734;6.544;2023-05-28T01:00:41;21.40;;;11.82;;
60038;SDS011;45916;52.734;6.544;2023-05-28T01:03:08;18.40;;;11.45;;
60038;SDS011;45916;52.734;6.544;2023-05-28T01:05:34;23.38;;;12.32;;
60038;SDS011;45916;52.734;6.544;2023-05-28T01:08:03;20.15;;;10.40;;
60038;SDS011;45916;52.734;6.544;2023-05-28T01:10:31;20.40;;;11.55;;
60038;SDS011;45916;52.734;6.544;2023-05-28T01:13:00;20.88;;;11.90;;
60038;SDS011;45916;52.734;6.544;2023-05-28T01:15:28;24.58;;;11.85;;
60038;SDS011;45916;52.734;6.544;2023-05-28T01:17:56;23.58;;;11.40;;
60038;SDS011;45916;52.734;6.544;2023-05-28T01:20:23;20.35;;;11.90;;
60038;SDS011;45916;52.734;6.544;2023-05-28T01:22:54;20.73;;;11.38;;
60038;SDS011;45916;52.734;6.544;2023-05-28T01:25:23;22.70;;;11.68;;
60038;SDS011;45916;52.734;6.544;2023-05-28T01:27:50;23.98;;;10.68;;
60038;SDS011;45916;52.734;6.544;2023-05-28T01:30:16;22.88;;;11.07;;
60038;SDS011;45916;52.734;6.544;2023-05-28T01:32:42;22.60;;;11.70;;
60038;SDS011;45916;52.734;6.544;2023-05-28T01:35:08;18.20;;;10.35;;
60038;SDS011;45916;52.734;6.544;2023-05-28T01:37:40;20.75;;;10.77;;
60038;SDS011;45916;52.734;6.544;2023-05-28T01:40:13;16.63;;;10.13;;
60038;SDS011;45916;52.734;6.544;2023-05-28T01:42:41;17.48;;;10.65;;
60038;SDS011;45916;52.734;6.544;2023-05-28T01:45:09;22.42;;;10.55;;
60038;SDS011;45916;52.734;6.544;2023-05-28T01:47:36;20.73;;;10.73;;
60038;SDS011;45916;52.734;6.544;2023-05-28T01:50:02;20.88;;;10.88;;
60038;SDS011;45916;52.734;6.544;2023-05-28T01:52:28;25.20;;;10.60;;
60038;SDS011;45916;52.734;6.544;2023-05-28T01:54:54;24.15;;;10.90;;
60038;SDS011;45916;52.734;6.544;2023-05-28T01:57:20;18.00;;;11.02;;
60038;SDS011;45916;52.734;6.544;2023-05-28T01:59:45;20.17;;;10.05;;
60038;SDS011;45916;52.734;6.544;2023-05-28T02:02:11;19.85;;;11.07;;
60038;SDS011;45916;52.734;6.544;2023-05-28T02:04:37;23.35;;;11.75;;
60038;SDS011;45916;52.734;6.544;2023-05-28T02:07:03;18.80;;;11.52;;
60038;SDS011;45916;52.734;6.544;2023-05-28T02:09:29;21.15;;;11.45;;
60038;SDS011;45916;52.734;6.544;2023-05-28T02:11:54;23.55;;;12.00;;
60038;SDS011;45916;52.734;6.544;2023-05-28T02:14:20;21.88;;;11.52;;
60038;SDS011;45916;52.734;6.544;2023-05-28T02:16:46;18.98;;;12.80;;
60038;SDS011;45916;52.734;6.544;2023-05-28T02:19:13;17.58;;;11.32;;
60038;SDS011;45916;52.734;6.544;2023-05-28T02:21:39;21.92;;;12.00;;
60038;SDS011;45916;52.734;6.544;2023-05-28T02:24:05;19.45;;;11.10;;
60038;SDS011;45916;52.734;6.544;2023-05-28T02:26:31;18.48;;;10.80;;
60038;SDS011;45916;52.734;6.544;2023-05-28T02:28:57;18.55;;;10.88;;
60038;SDS011;45916;52.734;6.544;2023-05-28T02:31:23;17.77;;;11.27;;
60038;SDS011;45916;52.734;6.544;2023-05-28T02:33:48;20.85;;;10.77;;
60038;SDS011;45916;52.734;6.544;2023-05-28T02:36:14;20.33;;;10.73;;
60038;SDS011;45916;52.734;6.544;2023-05-28T02:38:40;17.80;;;10.65;;
60038;SDS011;45916;52.734;6.544;2023-05-28T02:41:07;25.88;;;11.38;;
60038;SDS011;45916;52.734;6.544;2023-05-28T02:43:33;20.15;;;10.65;;
60038;SDS011;45916;52.734;6.544;2023-05-28T02:45:59;22.05;;;11.50;;
60038;SDS011;45916;52.734;6.544;2023-05-28T02:48:25;22.30;;;11.10;;
60038;SDS011;45916;52.734;6.544;2023-05-28T02:50:50;22.17;;;10.43;;
60038;SDS011;45916;52.734;6.544;2023-05-28T02:53:19;22.40;;;11.25;;
60038;SDS011;45916;52.734;6.544;2023-05-28T02:55:46;21.77;;;11.52;;
60038;SDS011;45916;52.734;6.544;2023-05-28T02:58:11;21.08;;;12.23;;
60038;SDS011;45916;52.734;6.544;2023-05-28T03:00:38;19.98;;;11.45;;
60038;SDS011;45916;52.734;6.544;2023-05-28T03:03:03;19.42;;;10.30;;
60038;SDS011;45916;52.734;6.544;2023-05-28T03:05:29;20.38;;;11.68;;
60038;SDS011;45916;52.734;6.544;2023-05-28T03:07:57;19.25;;;10.20;;
60038;SDS011;45916;52.734;6.544;2023-05-28T03:10:26;23.45;;;11.27;;
60038;SDS011;45916;52.734;6.544;2023-05-28T03:12:52;17.63;;;10.85;;
60038;SDS011;45916;52.734;6.544;2023-05-28T03:15:17;19.05;;;10.38;;
60038;SDS011;45916;52.734;6.544;2023-05-28T03:17:43;27.60;;;12.10;;
60038;SDS011;45916;52.734;6.544;2023-05-28T03:20:09;29.25;;;12.30;;
60038;SDS011;45916;52.734;6.544;2023-05-28T03:22:36;20.92;;;11.18;;
60038;SDS011;45916;52.734;6.544;2023-05-28T03:25:03;25.27;;;10.52;;
60038;SDS011;45916;52.734;6.544;2023-05-28T03:27:29;21.73;;;10.90;;
60038;SDS011;45916;52.734;6.544;2023-05-28T03:29:55;22.85;;;11.38;;
60038;SDS011;45916;52.734;6.544;2023-05-28T03:32:21;18.80;;;10.68;;
60038;SDS011;45916;52.734;6.544;2023-05-28T03:34:47;20.75;;;10.95;;
60038;SDS011;45916;52.734;6.544;2023-05-28T03:37:12;20.95;;;10.90;;
60038;SDS011;45916;52.734;6.544;2023-05-28T03:39:38;19.73;;;10.90;;
60038;SDS011;45916;52.734;6.544;2023-05-28T03:42:04;19.20;;;9.63;;
60038;SDS011;45916;52.734;6.544;2023-05-28T03:44:30;22.52;;;11.43;;
60038;SDS011;45916;52.734;6.544;2023-05-28T03:46:56;19.17;;;10.30;;
60038;SDS011;45916;52.734;6.544;2023-05-28T03:49:22;18.70;;;10.07;;
60038;SDS011;45916;52.734;6.544;2023-05-28T03:51:48;22.52;;;10.32;;
60038;SDS011;45916;52.734;6.544;2023-05-28T03:54:13;21.63;;;10.43;;
60038;SDS011;45916;52.734;6.544;2023-05-28T03:56:39;19.25;;;9.95;;
60038;SDS011;45916;52.734;6.544;2023-05-28T03:59:05;17.65;;;10.35;;
60038;SDS011;45916;52.734;6.544;2023-05-28T04:01:31;21.45;;;10.80;;
60038;SDS011;45916;52.734;6.544;2023-05-28T04:03:59;20.77;;;10.00;;
60038;SDS011;45916;52.734;6.544;2023-05-28T04:06:25;18.33;;;9.55;;
60038;SDS011;45916;52.734;6.544;2023-05-28T04:08:51;16.17;;;9.55;;
60038;SDS011;45916;52.734;6.544;2023-05-28T04:11:17;19.08;;;9.68;;
60038;SDS011;45916;52.734;6.544;2023-05-28T04:13:43;19.00;;;9.40;;
60038;SDS011;45916;52.734;6.544;2023-05-28T04:16:09;17.75;;;9.85;;
60038;SDS011;45916;52.734;6.544;2023-05-28T04:18:35;16.50;;;8.93;;
60038;SDS011;45916;52.734;6.544;2023-05-28T04:21:01;18.55;;;8.60;;
60038;SDS011;45916;52.734;6.544;2023-05-28T04:23:27;16.85;;;9.18;;
60038;SDS011;45916;52.734;6.544;2023-05-28T04:25:53;20.45;;;9.65;;
60038;SDS011;45916;52.734;6.544;2023-05-28T04:28:19;16.17;;;10.35;;
60038;SDS011;45916;52.734;6.544;2023-05-28T04:30:45;17.75;;;8.65;;
60038;SDS011;45916;52.734;6.544;2023-05-28T04:33:10;20.27;;;10.73;;
60038;SDS011;45916;52.734;6.544;2023-05-28T04:35:36;16.13;;;9.32;;
60038;SDS011;45916;52.734;6.544;2023-05-28T04:38:02;17.67;;;9.40;;
60038;SDS011;45916;52.734;6.544;2023-05-28T04:40:27;20.80;;;10.38;;
60038;SDS011;45916;52.734;6.544;2023-05-28T04:42:54;19.40;;;9.38;;
60038;SDS011;45916;52.734;6.544;2023-05-28T04:45:20;20.02;;;9.05;;
60038;SDS011;45916;52.734;6.544;2023-05-28T04:47:47;17.80;;;8.85;;
60038;SDS011;45916;52.734;6.544;2023-05-28T04:50:14;19.55;;;10.10;;
60038;SDS011;45916;52.734;6.544;2023-05-28T04:52:39;19.05;;;9.68;;
60038;SDS011;45916;52.734;6.544;2023-05-28T04:55:05;18.80;;;10.63;;
60038;SDS011;45916;52.734;6.544;2023-05-28T04:57:31;22.23;;;10.02;;
60038;SDS011;45916;52.734;6.544;2023-05-28T04:59:57;19.02;;;10.05;;
60038;SDS011;45916;52.734;6.544;2023-05-28T05:02:27;17.77;;;9.95;;
60038;SDS011;45916;52.734;6.544;2023-05-28T05:04:53;22.25;;;9.60;;
60038;SDS011;45916;52.734;6.544;2023-05-28T05:07:21;18.30;;;8.80;;
60038;SDS011;45916;52.734;6.544;2023-05-28T05:09:47;17.10;;;8.02;;
60038;SDS011;45916;52.734;6.544;2023-05-28T05:12:13;14.38;;;7.22;;
60038;SDS011;45916;52.734;6.544;2023-05-28T05:14:39;12.18;;;6.85;;
60038;SDS011;45916;52.734;6.544;2023-05-28T05:17:04;12.77;;;6.93;;
60038;SDS011;45916;52.734;6.544;2023-05-28T05:19:33;15.57;;;6.60;;
60038;SDS011;45916;52.734;6.544;2023-05-28T05:22:00;16.48;;;7.88;;
60038;SDS011;45916;52.734;6.544;2023-05-28T05:24:26;14.65;;;7.15;;
60038;SDS011;45916;52.734;6.544;2023-05-28T05:26:52;16.75;;;6.93;;
60038;SDS011;45916;52.734;6.544;2023-05-28T05:29:17;13.23;;;6.72;;
60038;SDS011;45916;52.734;6.544;2023-05-28T05:31:43;12.52;;;6.35;;
60038;SDS011;45916;52.734;6.544;2023-05-28T05:34:08;13.23;;;6.82;;
60038;SDS011;45916;52.734;6.544;2023-05-28T05:36:34;13.68;;;7.47;;
60038;SDS011;45916;52.734;6.544;2023-05-28T05:39:01;12.00;;;6.80;;
60038;SDS011;45916;52.734;6.544;2023-05-28T05:41:26;14.55;;;6.70;;
60038;SDS011;45916;52.734;6.544;2023-05-28T05:43:52;11.77;;;5.78;;
60038;SDS011;45916;52.734;6.544;2023-05-28T05:46:18;12.45;;;6.75;;
60038;SDS011;45916;52.734;6.544;2023-05-28T05:48:44;14.98;;;7.32;;
60038;SDS011;45916;52.734;6.544;2023-05-28T05:51:10;12.23;;;7.35;;
60038;SDS011;45916;52.734;6.544;2023-05-28T05:53:42;12.25;;;7.32;;
60038;SDS011;45916;52.734;6.544;2023-05-28T05:56:08;13.73;;;5.85;;
60038;SDS011;45916;52.734;6.544;2023-05-28T05:58:34;11.70;;;6.25;;
60038;SDS011;45916;52.734;6.544;2023-05-28T06:00:59;13.98;;;6.55;;
60038;SDS011;45916;52.734;6.544;2023-05-28T06:03:25;11.93;;;6.75;;
60038;SDS011;45916;52.734;6.544;2023-05-28T06:05:52;11.25;;;5.80;;
60038;SDS011;45916;52.734;6.544;2023-05-28T06:08:18;11.52;;;6.05;;
60038;SDS011;45916;52.734;6.544;2023-05-28T06:10:44;11.68;;;6.57;;
60038;SDS011;45916;52.734;6.544;2023-05-28T06:13:13;12.65;;;6.13;;
60038;SDS011;45916;52.734;6.544;2023-05-28T06:15:39;13.02;;;6.25;;
60038;SDS011;45916;52.734;6.544;2023-05-28T06:18:05;10.38;;;5.60;;
60038;SDS011;45916;52.734;6.544;2023-05-28T06:20:30;11.82;;;6.00;;
60038;SDS011;45916;52.734;6.544;2023-05-28T06:22:56;11.77;;;5.32;;
60038;SDS011;45916;52.734;6.544;2023-05-28T06:25:22;11.00;;;5.93;;
60038;SDS011;45916;52.734;6.544;2023-05-28T06:27:48;12.45;;;5.32;;
60038;SDS011;45916;52.734;6.544;2023-05-28T06:30:14;11.02;;;6.22;;
60038;SDS011;45916;52.734;6.544;2023-05-28T06:32:40;12.93;;;5.70;;
60038;SDS011;45916;52.734;6.544;2023-05-28T06:35:07;10.57;;;5.78;;
60038;SDS011;45916;52.734;6.544;2023-05-28T06:37:34;9.43;;;5.25;;
60038;SDS011;45916;52.734;6.544;2023-05-28T06:39:59;13.65;;;6.10;;
60038;SDS011;45916;52.734;6.544;2023-05-28T06:42:25;11.88;;;6.32;;
60038;SDS011;45916;52.734;6.544;2023-05-28T06:44:51;11.77;;;5.80;;
60038;SDS011;45916;52.734;6.544;2023-05-28T06:47:16;12.65;;;5.88;;
60038;SDS011;45916;52.734;6.544;2023-05-28T06:49:42;11.60;;;6.00;;
60038;SDS011;45916;52.734;6.544;2023-05-28T06:52:08;10.55;;;6.15;;
60038;SDS011;45916;52.734;6.544;2023-05-28T06:54:34;10.00;;;5.78;;
60038;SDS011;45916;52.734;6.544;2023-05-28T06:56:59;11.18;;;5.50;;
60038;SDS011;45916;52.734;6.544;2023-05-28T06:59:25;10.38;;;6.15;;
60038;SDS011;45916;52.734;6.544;2023-05-28T07:01:51;10.07;;;5.45;;
60038;SDS011;45916;52.734;6.544;2023-05-28T07:04:17;10.88;;;5.15;;
60038;SDS011;45916;52.734;6.544;2023-05-28T07:06:43;12.75;;;5.70;;
60038;SDS011;45916;52.734;6.544;2023-05-28T07:09:08;10.68;;;5.40;;
60038;SDS011;45916;52.734;6.544;2023-05-28T07:11:35;11.80;;;6.13;;
60038;SDS011;45916;52.734;6.544;2023-05-28T07:14:01;10.35;;;5.68;;
60038;SDS011;45916;52.734;6.544;2023-05-28T07:16:26;10.20;;;5.50;;
60038;SDS011;45916;52.734;6.544;2023-05-28T07:18:52;11.93;;;4.70;;
60038;SDS011;45916;52.734;6.544;2023-05-28T07:21:18;11.32;;;6.00;;
60038;SDS011;45916;52.734;6.544;2023-05-28T07:23:43;9.90;;;5.15;;
60038;SDS011;45916;52.734;6.544;2023-05-28T07:26:09;11.32;;;5.13;;
60038;SDS011;45916;52.734;6.544;2023-05-28T07:28:35;7.97;;;4.78;;
60038;SDS011;45916;52.734;6.544;2023-05-28T07:31:01;11.07;;;5.43;;
60038;SDS011;45916;52.734;6.544;2023-05-28T07:33:26;11.43;;;5.60;;
60038;SDS011;45916;52.734;6.544;2023-05-28T07:35:52;11.52;;;5.25;;
60038;SDS011;45916;52.734;6.544;2023-05-28T07:38:18;9.02;;;4.45;;
60038;SDS011;45916;52.734;6.544;2023-05-28T07:40:44;11.25;;;5.35;;
60038;SDS011;45916;52.734;6.544;2023-05-28T07:43:10;11.20;;;5.37;;
60038;SDS011;45916;52.734;6.544;2023-05-28T07:45:36;10.93;;;5.68;;
60038;SDS011;45916;52.734;6.544;2023-05-28T07:48:01;11.35;;;5.28;;
60038;SDS011;45916;52.734;6.544;2023-05-28T07:50:27;10.75;;;4.95;;
60038;SDS011;45916;52.734;6.544;2023-05-28T07:52:53;11.00;;;6.00;;
60038;SDS011;45916;52.734;6.544;2023-05-28T07:55:19;8.73;;;5.20;;
60038;SDS011;45916;52.734;6.544;2023-05-28T07:57:44;11.57;;;5.55;;
60038;SDS011;45916;52.734;6.544;2023-05-28T08:00:10;9.65;;;5.05;;
60038;SDS011;45916;52.734;6.544;2023-05-28T08:02:37;10.15;;;5.47;;
60038;SDS011;45916;52.734;6.544;2023-05-28T08:05:03;11.50;;;5.73;;
60038;SDS011;45916;52.734;6.544;2023-05-28T08:09:56;11.02;;;5.47;;
60038;SDS011;45916;52.734;6.544;2023-05-28T08:12:21;8.83;;;5.33;;
60038;SDS011;45916;52.734;6.544;2023-05-28T08:14:49;11.75;;;5.30;;
60038;SDS011;45916;52.734;6.544;2023-05-28T08:17:15;11.70;;;5.47;;
60038;SDS011;45916;52.734;6.544;2023-05-28T08:19:41;8.63;;;4.60;;
60038;SDS011;45916;52.734;6.544;2023-05-28T08:22:08;13.48;;;5.57;;
60038;SDS011;45916;52.734;6.544;2023-05-28T08:24:33;9.20;;;5.63;;
60038;SDS011;45916;52.734;6.544;2023-05-28T08:26:59;11.77;;;5.60;;
60038;SDS011;45916;52.734;6.544;2023-05-28T08:29:26;12.32;;;5.28;;
60038;SDS011;45916;52.734;6.544;2023-05-28T08:31:52;10.67;;;5.33;;
60038;SDS011;45916;52.734;6.544;2023-05-28T08:34:17;9.50;;;5.30;;
60038;SDS011;45916;52.734;6.544;2023-05-28T08:36:43;11.13;;;5.93;;
60038;SDS011;45916;52.734;6.544;2023-05-28T08:39:09;10.57;;;5.70;;
60038;SDS011;45916;52.734;6.544;2023-05-28T08:41:35;10.27;;;5.90;;
60038;SDS011;45916;52.734;6.544;2023-05-28T08:44:00;10.70;;;5.53;;
60038;SDS011;45916;52.734;6.544;2023-05-28T08:46:27;10.40;;;6.73;;
60038;SDS011;45916;52.734;6.544;2023-05-28T08:48:55;8.90;;;5.25;;
60038;SDS011;45916;52.734;6.544;2023-05-28T08:51:23;10.02;;;6.00;;
60038;SDS011;45916;52.734;6.544;2023-05-28T08:53:51;11.85;;;6.22;;
60038;SDS011;45916;52.734;6.544;2023-05-28T08:56:17;10.05;;;6.35;;
60038;SDS011;45916;52.734;6.544;2023-05-28T08:58:44;12.68;;;6.78;;
60038;SDS011;45916;52.734;6.544;2023-05-28T09:01:10;11.20;;;6.10;;
60038;SDS011;45916;52.734;6.544;2023-05-28T09:03:37;10.67;;;6.30;;
60038;SDS011;45916;52.734;6.544;2023-05-28T09:06:04;12.07;;;6.15;;
60038;SDS011;45916;52.734;6.544;2023-05-28T09:08:34;10.05;;;5.85;;
60038;SDS011;45916;52.734;6.544;2023-05-28T09:11:12;10.93;;;7.22;;
60038;SDS011;45916;52.734;6.544;2023-05-28T09:13:42;8.82;;;5.40;;
60038;SDS011;45916;52.734;6.544;2023-05-28T09:16:09;9.95;;;5.68;;
60038;SDS011;45916;52.734;6.544;2023-05-28T09:18:35;9.95;;;5.68;;
60038;SDS011;45916;52.734;6.544;2023-05-28T09:23:38;9.23;;;5.78;;
60038;SDS011;45916;52.734;6.544;2023-05-28T09:26:07;9.35;;;6.00;;
60038;SDS011;45916;52.734;6.544;2023-05-28T09:28:34;11.38;;;5.95;;
60038;SDS011;45916;52.734;6.544;2023-05-28T09:31:06;9.73;;;6.13;;
60038;SDS011;45916;52.734;6.544;2023-05-28T09:33:32;9.23;;;5.88;;
60038;SDS011;45916;52.734;6.544;2023-05-28T09:35:59;10.35;;;6.07;;
60038;SDS011;45916;52.734;6.544;2023-05-28T09:38:26;10.30;;;6.35;;
60038;SDS011;45916;52.734;6.544;2023-05-28T09:40:55;9.13;;;6.22;;
60038;SDS011;45916;52.734;6.544;2023-05-28T09:43:27;10.35;;;6.15;;
60038;SDS011;45916;52.734;6.544;2023-05-28T09:46:07;11.45;;;5.70;;
60038;SDS011;45916;52.734;6.544;2023-05-28T09:48:33;9.98;;;6.47;;
60038;SDS011;45916;52.734;6.544;2023-05-28T09:51:03;11.15;;;6.50;;
60038;SDS011;45916;52.734;6.544;2023-05-28T09:53:32;9.13;;;6.47;;
60038;SDS011;45916;52.734;6.544;2023-05-28T09:56:03;10.10;;;6.97;;
60038;SDS011;45916;52.734;6.544;2023-05-28T09:58:31;10.90;;;6.13;;
60038;SDS011;45916;52.734;6.544;2023-05-28T10:01:08;11.18;;;5.95;;
60038;SDS011;45916;52.734;6.544;2023-05-28T10:03:44;11.38;;;7.00;;
60038;SDS011;45916;52.734;6.544;2023-05-28T10:06:16;8.97;;;5.73;;
60038;SDS011;45916;52.734;6.544;2023-05-28T10:08:45;10.55;;;6.65;;
60038;SDS011;45916;52.734;6.544;2023-05-28T10:11:15;9.27;;;5.43;;
60038;SDS011;45916;52.734;6.544;2023-05-28T10:13:44;11.20;;;6.10;;
60038;SDS011;45916;52.734;6.544;2023-05-28T10:16:10;10.90;;;6.40;;
60038;SDS011;45916;52.734;6.544;2023-05-28T10:21:03;9.80;;;6.32;;
60038;SDS011;45916;52.734;6.544;2023-05-28T10:23:30;10.77;;;6.05;;
60038;SDS011;45916;52.734;6.544;2023-05-28T10:25:57;9.02;;;6.00;;
60038;SDS011;45916;52.734;6.544;2023-05-28T10:28:23;9.27;;;5.97;;
60038;SDS011;45916;52.734;6.544;2023-05-28T10:31:07;11.82;;;5.78;;
60038;SDS011;45916;52.734;6.544;2023-05-28T10:33:41;9.88;;;5.50;;
60038;SDS011;45916;52.734;6.544;2023-05-28T10:36:11;9.25;;;5.55;;
60038;SDS011;45916;52.734;6.544;2023-05-28T10:39:12;10.52;;;5.75;;
60038;SDS011;45916;52.734;6.544;2023-05-28T10:41:32;9.60;;;5.15;;
60038;SDS011;45916;52.734;6.544;2023-05-28T10:44:08;9.00;;;5.78;;
60038;SDS011;45916;52.734;6.544;2023-05-28T10:46:37;11.80;;;5.90;;
60038;SDS011;45916;52.734;6.544;2023-05-28T10:49:04;9.55;;;5.88;;
60038;SDS011;45916;52.734;6.544;2023-05-28T10:57:06;10.85;;;6.22;;
60038;SDS011;45916;52.734;6.544;2023-05-28T10:59:36;9.88;;;6.00;;
60038;SDS011;45916;52.734;6.544;2023-05-28T11:02:03;9.60;;;5.18;;
60038;SDS011;45916;52.734;6.544;2023-05-28T11:04:32;9.15;;;5.60;;
60038;SDS011;45916;52.734;6.544;2023-05-28T11:06:59;10.10;;;6.03;;
60038;SDS011;45916;52.734;6.544;2023-05-28T11:09:25;10.40;;;5.90;;
60038;SDS011;45916;52.734;6.544;2023-05-28T11:11:52;10.35;;;5.65;;
60038;SDS011;45916;52.734;6.544;2023-05-28T11:14:22;12.07;;;6.10;;
60038;SDS011;45916;52.734;6.544;2023-05-28T11:16:47;10.25;;;5.47;;
60038;SDS011;45916;52.734;6.544;2023-05-28T11:19:13;10.48;;;6.10;;
60038;SDS011;45916;52.734;6.544;2023-05-28T11:21:51;10.60;;;6.75;;
60038;SDS011;45916;52.734;6.544;2023-05-28T11:24:21;9.95;;;5.40;;
60038;SDS011;45916;52.734;6.544;2023-05-28T11:26:47;8.98;;;5.07;;
60038;SDS011;45916;52.734;6.544;2023-05-28T11:29:12;10.50;;;6.00;;
60038;SDS011;45916;52.734;6.544;2023-05-28T11:31:40;9.25;;;5.95;;
60038;SDS011;45916;52.734;6.544;2023-05-28T11:34:06;10.20;;;5.65;;
60038;SDS011;45916;52.734;6.544;2023-05-28T11:36:42;9.10;;;5.20;;
60038;SDS011;45916;52.734;6.544;2023-05-28T11:39:09;11.45;;;5.90;;
60038;SDS011;45916;52.734;6.544;2023-05-28T11:41:35;10.20;;;5.93;;
60038;SDS011;45916;52.734;6.544;2023-05-28T11:44:02;11.45;;;5.70;;
60038;SDS011;45916;52.734;6.544;2023-05-28T11:46:42;8.10;;;5.93;;
60038;SDS011;45916;52.734;6.544;2023-05-28T11:49:08;9.50;;;5.30;;
60038;SDS011;45916;52.734;6.544;2023-05-28T11:51:34;9.55;;;5.82;;
60038;SDS011;45916;52.734;6.544;2023-05-28T11:54:01;9.38;;;5.28;;
60038;SDS011;45916;52.734;6.544;2023-05-28T11:56:26;9.80;;;5.25;;
60038;SDS011;45916;52.734;6.544;2023-05-28T11:58:52;10.25;;;5.55;;
60038;SDS011;45916;52.734;6.544;2023-05-28T12:01:19;9.23;;;5.28;;
60038;SDS011;45916;52.734;6.544;2023-05-28T12:03:45;10.52;;;5.32;;
60038;SDS011;45916;52.734;6.544;2023-05-28T12:06:11;10.43;;;5.18;;
60038;SDS011;45916;52.734;6.544;2023-05-28T12:08:38;10.18;;;5.90;;
60038;SDS011;45916;52.734;6.544;2023-05-28T12:13:31;8.80;;;4.70;;
60038;SDS011;45916;52.734;6.544;2023-05-28T12:16:05;8.98;;;5.00;;
60038;SDS011;45916;52.734;6.544;2023-05-28T12:18:31;8.18;;;5.20;;
60038;SDS011;45916;52.734;6.544;2023-05-28T12:20:57;10.52;;;5.85;;
60038;SDS011;45916;52.734;6.544;2023-05-28T12:23:23;9.02;;;4.97;;
60038;SDS011;45916;52.734;6.544;2023-05-28T12:25:49;9.48;;;5.40;;
60038;SDS011;45916;52.734;6.544;2023-05-28T12:28:19;8.35;;;4.90;;
60038;SDS011;45916;52.734;6.544;2023-05-28T12:30:50;7.60;;;4.60;;
60038;SDS011;45916;52.734;6.544;2023-05-28T12:33:18;7.85;;;5.38;;
60038;SDS011;45916;52.734;6.544;2023-05-28T12:35:45;8.50;;;5.37;;
60038;SDS011;45916;52.734;6.544;2023-05-28T12:38:11;7.95;;;4.95;;
60038;SDS011;45916;52.734;6.544;2023-05-28T12:40:37;8.00;;;4.85;;
60038;SDS011;45916;52.734;6.544;2023-05-28T12:43:03;9.55;;;4.80;;
60038;SDS011;45916;52.734;6.544;2023-05-28T12:45:29;7.82;;;5.28;;
60038;SDS011;45916;52.734;6.544;2023-05-28T12:47:55;8.00;;;4.70;;
60038;SDS011;45916;52.734;6.544;2023-05-28T12:50:21;6.70;;;4.13;;
60038;SDS011;45916;52.734;6.544;2023-05-28T12:52:49;9.23;;;4.80;;
60038;SDS011;45916;52.734;6.544;2023-05-28T12:55:15;8.82;;;5.40;;
60038;SDS011;45916;52.734;6.544;2023-05-28T12:57:41;8.18;;;4.75;;
60038;SDS011;45916;52.734;6.544;2023-05-28T13:00:07;8.13;;;5.28;;
60038;SDS011;45916;52.734;6.544;2023-05-28T13:02:35;7.53;;;4.57;;
60038;SDS011;45916;52.734;6.544;2023-05-28T13:05:05;9.70;;;5.43;;
60038;SDS011;45916;52.734;6.544;2023-05-28T13:07:31;8.47;;;5.33;;
60038;SDS011;45916;52.734;6.544;2023-05-28T13:09:57;8.00;;;5.25;;
60038;SDS011;45916;52.734;6.544;2023-05-28T13:12:24;9.18;;;5.22;;
60038;SDS011;45916;52.734;6.544;2023-05-28T13:14:49;7.18;;;4.85;;
60038;SDS011;45916;52.734;6.544;2023-05-28T13:17:15;8.70;;;5.28;;
60038;SDS011;45916;52.734;6.544;2023-05-28T13:19:41;7.82;;;5.35;;
60038;SDS011;45916;52.734;6.544;2023-05-28T13:22:06;8.13;;;5.53;;
60038;SDS011;45916;52.734;6.544;2023-05-28T13:24:36;8.95;;;5.18;;
60038;SDS011;45916;52.734;6.544;2023-05-28T13:27:01;7.85;;;4.63;;
60038;SDS011;45916;52.734;6.544;2023-05-28T13:29:27;8.10;;;5.00;;
60038;SDS011;45916;52.734;6.544;2023-05-28T13:31:53;8.30;;;5.15;;
60038;SDS011;45916;52.734;6.544;2023-05-28T13:34:19;9.40;;;4.70;;
60038;SDS011;45916;52.734;6.544;2023-05-28T13:36:45;6.95;;;4.60;;
60038;SDS011;45916;52.734;6.544;2023-05-28T13:39:10;7.65;;;4.68;;
60038;SDS011;45916;52.734;6.544;2023-05-28T13:41:36;8.27;;;4.25;;
60038;SDS011;45916;52.734;6.544;2023-05-28T13:44:02;6.43;;;4.40;;
60038;SDS011;45916;52.734;6.544;2023-05-28T13:46:27;8.27;;;4.63;;
60038;SDS011;45916;52.734;6.544;2023-05-28T13:48:54;7.20;;;3.90;;
60038;SDS011;45916;52.734;6.544;2023-05-28T13:51:20;7.43;;;4.15;;
60038;SDS011;45916;52.734;6.544;2023-05-28T13:53:46;8.52;;;4.22;;
60038;SDS011;45916;52.734;6.544;2023-05-28T13:56:12;8.57;;;3.83;;
60038;SDS011;45916;52.734;6.544;2023-05-28T13:58:39;7.78;;;3.55;;
60038;SDS011;45916;52.734;6.544;2023-05-28T14:01:04;9.90;;;4.68;;
60038;SDS011;45916;52.734;6.544;2023-05-28T14:03:30;7.95;;;4.28;;
60038;SDS011;45916;52.734;6.544;2023-05-28T14:05:56;8.90;;;3.65;;
60038;SDS011;45916;52.734;6.544;2023-05-28T14:08:22;9.10;;;3.75;;
60038;SDS011;45916;52.734;6.544;2023-05-28T14:10:48;8.05;;;4.28;;
60038;SDS011;45916;52.734;6.544;2023-05-28T14:13:14;9.38;;;4.63;;
60038;SDS011;45916;52.734;6.544;2023-05-28T14:15:42;8.52;;;4.20;;
60038;SDS011;45916;52.734;6.544;2023-05-28T14:18:09;8.63;;;4.40;;
60038;SDS011;45916;52.734;6.544;2023-05-28T14:20:41;9.18;;;4.15;;
60038;SDS011;45916;52.734;6.544;2023-05-28T14:23:07;9.20;;;4.00;;
60038;SDS011;45916;52.734;6.544;2023-05-28T14:25:33;10.27;;;4.60;;
60038;SDS011;45916;52.734;6.544;2023-05-28T14:27:58;10.20;;;4.63;;
60038;SDS011;45916;52.734;6.544;2023-05-28T14:30:24;9.00;;;4.07;;
60038;SDS011;45916;52.734;6.544;2023-05-28T14:32:50;12.45;;;4.65;;
60038;SDS011;45916;52.734;6.544;2023-05-28T14:35:16;10.32;;;4.97;;
60038;SDS011;45916;52.734;6.544;2023-05-28T14:37:41;9.90;;;4.35;;
60038;SDS011;45916;52.734;6.544;2023-05-28T14:40:07;8.40;;;4.28;;
60038;SDS011;45916;52.734;6.544;2023-05-28T14:42:33;10.25;;;3.95;;
60038;SDS011;45916;52.734;6.544;2023-05-28T14:45:00;7.28;;;4.38;;
60038;SDS011;45916;52.734;6.544;2023-05-28T14:47:25;10.93;;;4.70;;